createdAt,value
2022-08-26T00:02:17.212Z,100707.84
2022-08-26T00:04:49.315Z,100703.66
2022-08-26T00:07:18.001Z,100703.66
2022-08-26T00:09:47.434Z,100706.66
2022-08-26T00:12:15.670Z,100705.94
2022-08-26T00:14:43.792Z,100713.06
2022-08-26T00:17:13.532Z,100712.34
2022-08-26T00:19:41.567Z,100706.22
2022-08-26T00:22:09.576Z,100703.78
2022-08-26T00:24:39.496Z,100707.66
2022-08-26T00:27:15.851Z,100708.72
2022-08-26T00:29:43.829Z,100699.19
2022-08-26T00:32:14.417Z,100701.88
2022-08-26T00:34:42.426Z,100698.56
2022-08-26T00:37:13.385Z,100699.69
2022-08-26T00:39:43.743Z,100701.56
2022-08-26T00:42:13.916Z,100696.28
2022-08-26T00:44:41.901Z,100692.97
2022-08-26T00:47:18.972Z,100692.41
2022-08-26T00:49:48.488Z,100692.66
2022-08-26T00:52:22.944Z,100693.69
2022-08-26T00:54:56.267Z,100687.53
2022-08-26T00:57:25.421Z,100691.50
2022-08-26T01:00:01.234Z,100685.50
2022-08-26T01:02:31.008Z,100687.34
2022-08-26T01:05:03.238Z,100685.91
2022-08-26T01:07:34.731Z,100670.34
2022-08-26T01:10:07.395Z,100679.91
2022-08-26T01:12:41.830Z,100633.75
2022-08-26T01:15:16.314Z,100681.19
2022-08-26T01:17:46.067Z,100674.03
2022-08-26T01:20:28.278Z,100664.00
2022-08-26T01:23:05.433Z,100684.88
2022-08-26T01:25:38.641Z,100680.56
2022-08-26T01:28:12.868Z,100661.16
2022-08-26T01:30:44.189Z,100682.56
2022-08-26T01:33:18.327Z,100686.28
2022-08-26T01:35:48.341Z,100686.28
2022-08-26T01:38:18.702Z,100678.28
2022-08-26T01:40:47.384Z,100682.97
2022-08-26T01:43:18.561Z,100679.41
2022-08-26T01:45:49.435Z,100661.81
2022-08-26T01:48:22.765Z,100684.69
2022-08-26T01:50:52.736Z,100692.66
2022-08-26T01:53:23.602Z,100686.53
2022-08-26T01:55:55.856Z,100687.38
2022-08-26T01:58:27.396Z,100680.41
2022-08-26T02:00:55.773Z,100684.97
2022-08-26T02:03:24.683Z,100687.91
2022-08-26T02:05:56.304Z,100681.06
2022-08-26T02:08:33.021Z,100684.88
2022-08-26T02:11:01.305Z,100676.31
2022-08-26T02:13:32.826Z,100682.00
2022-08-26T02:16:03.888Z,100686.69
2022-08-26T02:18:35.940Z,100671.22
2022-08-26T02:21:03.994Z,100688.06
2022-08-26T02:23:36.442Z,100684.75
2022-08-26T02:26:11.068Z,100678.75
2022-08-26T02:28:45.448Z,100675.44
2022-08-26T02:31:13.677Z,100669.69
2022-08-26T02:33:43.027Z,100675.72
2022-08-26T02:36:13.393Z,100670.56
2022-08-26T02:38:43.166Z,100676.94
2022-08-26T02:41:11.301Z,100677.97
2022-08-26T02:43:39.248Z,100666.53
2022-08-26T02:46:07.378Z,100676.78
2022-08-26T02:48:35.488Z,100676.88
2022-08-26T02:51:04.257Z,100674.31
2022-08-26T02:53:35.680Z,100673.56
2022-08-26T02:56:05.879Z,100646.16
2022-08-26T02:58:33.950Z,100661.91
2022-08-26T03:01:02.558Z,100666.47
2022-08-26T03:03:33.356Z,100662.06
2022-08-26T03:06:01.408Z,100638.44
2022-08-26T03:08:29.425Z,100664.41
2022-08-26T03:10:57.382Z,100653.28
2022-08-26T03:13:26.761Z,100657.69
2022-08-26T03:15:55.111Z,100645.28
2022-08-26T03:18:24.202Z,100643.84
2022-08-26T03:20:52.203Z,100651.56
2022-08-26T03:23:20.688Z,100648.72
2022-08-26T03:25:51.157Z,100639.88
2022-08-26T03:28:19.682Z,100650.94
2022-08-26T03:30:49.237Z,100646.66
2022-08-26T03:33:17.614Z,100637.94
2022-08-26T03:35:47.712Z,100642.66
2022-08-26T03:38:18.643Z,100642.03
2022-08-26T03:40:46.765Z,100638.97
2022-08-26T03:43:15.911Z,100640.81
2022-08-26T03:45:44.553Z,100643.69
2022-08-26T03:48:15.515Z,100646.97
2022-08-26T03:50:43.903Z,100655.34
2022-08-26T03:53:13.107Z,100640.63
2022-08-26T03:55:41.991Z,100646.75
2022-08-26T03:58:11.344Z,100645.03
2022-08-26T04:00:39.583Z,100638.91
2022-08-26T04:03:07.950Z,100636.69
2022-08-26T04:05:39.572Z,100647.50
2022-08-26T04:08:07.853Z,100644.06
2022-08-26T04:10:38.923Z,100642.59
2022-08-26T04:13:07.607Z,100638.81
2022-08-26T04:15:35.709Z,100640.53
2022-08-26T04:18:04.362Z,100641.63
2022-08-26T04:20:32.607Z,100639.91
2022-08-26T04:23:02.049Z,100642.88
2022-08-26T04:25:30.093Z,100643.13
2022-08-26T04:27:58.118Z,100642.41
2022-08-26T04:30:26.299Z,100638.00
2022-08-26T04:32:54.350Z,100652.47
2022-08-26T04:35:25.749Z,100624.28
2022-08-26T04:37:55.315Z,100646.59
2022-08-26T04:40:27.489Z,100608.09
2022-08-26T04:42:55.778Z,100645.84
2022-08-26T04:45:24.451Z,100647.69
2022-08-26T04:47:56.310Z,100642.41
2022-08-26T04:50:25.756Z,100642.56
2022-08-26T04:52:55.569Z,100642.56
2022-08-26T04:55:38.769Z,100643.41
2022-08-26T04:58:10.335Z,100638.25
2022-08-26T05:00:39.319Z,100639.00
2022-08-26T05:03:10.605Z,100648.16
2022-08-26T05:05:40.910Z,100632.94
2022-08-26T05:08:09.944Z,100650.88
2022-08-26T05:10:45.417Z,100606.38
2022-08-26T05:13:15.593Z,100636.00
2022-08-26T05:15:45.279Z,100639.72
2022-08-26T05:18:14.884Z,100653.47
2022-08-26T05:20:44.881Z,100657.88
2022-08-26T05:23:16.364Z,100663.16
2022-08-26T05:25:48.009Z,100656.63
2022-08-26T05:28:19.593Z,100651.97
2022-08-26T05:30:47.872Z,100647.91
2022-08-26T05:33:17.387Z,100653.91
2022-08-26T05:35:46.308Z,100648.25
2022-08-26T05:38:16.632Z,100647.16
2022-08-26T05:40:49.030Z,100655.84
2022-08-26T05:43:21.004Z,100640.78
2022-08-26T05:45:51.057Z,100645.50
2022-08-26T05:48:22.654Z,100642.31
2022-08-26T05:50:54.132Z,100647.38
2022-08-26T05:53:25.937Z,100657.03
2022-08-26T05:55:56.617Z,100651.97
2022-08-26T05:58:27.167Z,100655.41
2022-08-26T06:01:01.482Z,100656.16
2022-08-26T06:03:32.051Z,100663.75
2022-08-26T06:06:00.304Z,100668.00
2022-08-26T06:08:28.275Z,100667.88
2022-08-26T06:11:01.999Z,100675.25
2022-08-26T06:13:30.404Z,100662.53
2022-08-26T06:16:03.642Z,100677.13
2022-08-26T06:18:36.459Z,100664.84
2022-08-26T06:21:14.591Z,100669.50
2022-08-26T06:24:01.180Z,100666.31
2022-08-26T06:26:31.286Z,100665.19
2022-08-26T06:28:59.763Z,100669.50
2022-08-26T06:31:30.494Z,100664.09
2022-08-26T06:33:58.662Z,100669.22
2022-08-26T06:36:28.649Z,100668.44
2022-08-26T06:39:00.376Z,100673.38
2022-08-26T06:41:31.760Z,100682.00
2022-08-26T06:44:00.345Z,100677.75
2022-08-26T06:46:29.557Z,100679.19
2022-08-26T06:48:58.172Z,100676.88
2022-08-26T06:51:29.108Z,100675.91
2022-08-26T06:54:00.288Z,100675.91
2022-08-26T06:56:33.952Z,100661.69
2022-08-26T06:59:02.517Z,100681.47
2022-08-26T07:01:33.006Z,100688.41
2022-08-26T07:04:03.860Z,100673.50
2022-08-26T07:06:39.173Z,100685.31
2022-08-26T07:09:09.992Z,100675.00
2022-08-26T07:11:40.441Z,100694.72
2022-08-26T07:14:09.163Z,100700.75
2022-08-26T07:16:37.498Z,100697.50
2022-08-26T07:19:11.078Z,100687.69
2022-08-26T07:21:40.196Z,100682.22
2022-08-26T07:24:11.042Z,100682.66
2022-08-26T07:26:42.986Z,100676.25
2022-08-26T07:29:12.318Z,100691.25
2022-08-26T07:31:42.691Z,100688.03
2022-08-26T07:34:11.782Z,100695.31
2022-08-26T07:36:39.913Z,100693.03
2022-08-26T07:39:11.011Z,100687.59
2022-08-26T07:41:40.476Z,100705.06
2022-08-26T07:44:08.756Z,100697.56
2022-08-26T07:46:38.235Z,100695.53
2022-08-26T07:49:06.555Z,100704.81
2022-08-26T07:51:35.537Z,100700.69
2022-08-26T07:54:05.491Z,100704.56
2022-08-26T07:56:33.951Z,100704.59
2022-08-26T07:59:03.474Z,100714.88
2022-08-26T08:01:45.040Z,100722.75
2022-08-26T08:04:14.176Z,100717.53
2022-08-26T08:06:43.963Z,100713.91
2022-08-26T08:09:12.536Z,100707.72
2022-08-26T08:11:41.439Z,100707.44
2022-08-26T08:14:13.350Z,100713.72
2022-08-26T08:16:45.770Z,100710.53
2022-08-26T08:19:15.369Z,100707.84
2022-08-26T08:21:43.935Z,100684.09
2022-08-26T08:24:12.270Z,100707.19
2022-08-26T08:26:40.307Z,100709.00
2022-08-26T08:29:09.066Z,100713.47
2022-08-26T08:31:56.748Z,100716.81
2022-08-26T08:34:28.246Z,100711.19
2022-08-26T08:36:57.252Z,100704.19
2022-08-26T08:39:26.273Z,100699.94
2022-08-26T08:42:23.630Z,100701.19
2022-08-26T08:44:56.568Z,100704.78
2022-08-26T08:47:33.859Z,100696.19
2022-08-26T08:50:12.986Z,100698.66
2022-08-26T08:52:45.145Z,100691.03
2022-08-26T08:55:18.322Z,100693.91
2022-08-26T08:58:02.427Z,100696.28
2022-08-26T09:00:39.889Z,100688.75
2022-08-26T09:03:17.605Z,100687.91
2022-08-26T09:05:51.377Z,100688.56
2022-08-26T09:08:24.267Z,100691.22
2022-08-26T09:10:56.014Z,100688.38
2022-08-26T09:13:27.381Z,100689.31
2022-08-26T09:16:04.398Z,100690.53
2022-08-26T09:18:59.252Z,100686.13
2022-08-26T09:21:28.126Z,100687.09
2022-08-26T09:23:57.120Z,100690.88
2022-08-26T09:26:30.786Z,100687.78
2022-08-26T09:29:01.853Z,100682.78
2022-08-26T09:31:32.435Z,100688.13
2022-08-26T09:34:17.448Z,100683.69
2022-08-26T09:36:48.517Z,100679.72
2022-08-26T09:39:33.836Z,100673.38
2022-08-26T09:42:08.363Z,100676.16
2022-08-26T09:44:54.462Z,100675.06
2022-08-26T09:47:26.810Z,100673.75
2022-08-26T09:50:04.255Z,100660.78
2022-08-26T09:52:37.756Z,100661.38
2022-08-26T09:55:15.581Z,100662.16
2022-08-26T09:57:48.921Z,100646.56
2022-08-26T10:00:33.400Z,100654.91
2022-08-26T10:03:02.563Z,100655.50
2022-08-26T10:05:39.980Z,100652.03
2022-08-26T10:08:25.751Z,100647.59
2022-08-26T10:10:55.366Z,100648.66
2022-08-26T10:13:29.579Z,100641.91
2022-08-26T10:16:05.696Z,100645.78
2022-08-26T10:18:36.504Z,100637.91
2022-08-26T10:21:11.404Z,100628.59
2022-08-26T10:23:43.457Z,100635.22
2022-08-26T10:26:19.293Z,100635.16
2022-08-26T10:28:51.339Z,100625.59
2022-08-26T10:31:28.854Z,100623.63
2022-08-26T10:34:00.355Z,100606.78
2022-08-26T10:39:49.068Z,100606.38
2022-08-26T10:42:23.033Z,100591.22
2022-08-26T10:44:58.752Z,100600.22
2022-08-26T10:47:35.201Z,100603.31
2022-08-26T10:50:04.380Z,100606.25
2022-08-26T10:52:48.014Z,100601.13
2022-08-26T10:55:23.903Z,100600.13
2022-08-26T10:58:00.119Z,100599.91
2022-08-26T11:00:55.445Z,100595.25
2022-08-26T11:03:32.611Z,100596.13
2022-08-26T11:06:23.835Z,100585.75
2022-08-26T11:08:55.420Z,100582.06
2022-08-26T11:11:54.551Z,100581.78
2022-08-26T11:14:58.500Z,100575.28
2022-08-26T11:17:56.418Z,100573.84
2022-08-26T11:20:36.482Z,100569.59
2022-08-26T11:23:38.898Z,100574.22
2022-08-26T11:26:35.592Z,100570.63
2022-08-26T11:29:12.844Z,100572.69
2022-08-26T11:31:57.159Z,100569.41
2022-08-26T11:34:59.189Z,100563.59
2022-08-26T11:37:34.654Z,100545.38
2022-08-26T11:40:05.425Z,100547.59
2022-08-26T11:42:40.955Z,100532.84
2022-08-26T11:45:20.179Z,100526.69
2022-08-26T11:47:49.461Z,100531.19
2022-08-26T11:50:20.562Z,100522.97
2022-08-26T11:52:53.833Z,100537.63
2022-08-26T11:55:23.275Z,100536.97
2022-08-26T11:57:57.263Z,100527.78
2022-08-26T12:00:33.381Z,100517.41
2022-08-26T12:03:06.721Z,100509.25
2022-08-26T12:05:39.470Z,100510.53
2022-08-26T12:08:09.572Z,100497.41
2022-08-26T12:10:38.068Z,100498.50
2022-08-26T12:13:21.268Z,100488.88
2022-08-26T12:15:55.784Z,100484.69
2022-08-26T12:18:29.261Z,100482.19
2022-08-26T12:21:01.520Z,100477.59
2022-08-26T12:23:41.839Z,100468.69
2022-08-26T12:26:19.451Z,100472.50
2022-08-26T12:28:51.284Z,100469.88
2022-08-26T12:31:25.930Z,100452.97
2022-08-26T12:33:55.519Z,100480.63
2022-08-26T12:36:28.633Z,100473.34
2022-08-26T12:38:58.583Z,100471.84
2022-08-26T12:41:48.752Z,100478.81
2022-08-26T12:44:53.186Z,100475.13
2022-08-26T12:47:35.133Z,100466.50
2022-08-26T12:50:17.531Z,100467.06
2022-08-26T12:52:59.447Z,100464.06
2022-08-26T12:55:37.761Z,100455.16
2022-08-26T12:58:21.267Z,100452.69
2022-08-26T13:00:52.000Z,100454.84
2022-08-26T13:03:43.369Z,100446.09
2022-08-26T13:06:18.331Z,100434.97
2022-08-26T13:08:47.847Z,100438.31
2022-08-26T13:11:20.435Z,100439.31
2022-08-26T13:13:51.674Z,100420.81
2022-08-26T13:16:22.122Z,100427.72
2022-08-26T13:18:53.086Z,100429.97
2022-08-26T13:21:23.811Z,100427.56
2022-08-26T13:23:53.143Z,100432.25
2022-08-26T13:26:22.093Z,100429.66
2022-08-26T13:29:01.489Z,100432.91
2022-08-26T13:31:34.642Z,100440.44
2022-08-26T13:34:03.146Z,100444.81
2022-08-26T13:36:31.967Z,100454.47
2022-08-26T13:39:00.660Z,100456.25
2022-08-26T13:41:29.835Z,100470.09
2022-08-26T13:43:59.582Z,100466.81
2022-08-26T13:46:28.761Z,100468.19
2022-08-26T13:48:59.007Z,100457.75
2022-08-26T13:51:28.547Z,100475.28
2022-08-26T13:53:56.661Z,100466.69
2022-08-26T13:56:27.448Z,100467.38
2022-08-26T13:58:56.303Z,100452.50
2022-08-26T14:01:24.928Z,100431.91
2022-08-26T14:03:53.298Z,100439.00
2022-08-26T14:06:22.991Z,100454.50
2022-08-26T14:08:51.248Z,100454.31
2022-08-26T14:11:19.501Z,100444.81
2022-08-26T14:13:47.587Z,100443.69
2022-08-26T14:16:21.999Z,100437.25
2022-08-26T14:18:50.996Z,100439.75
2022-08-26T14:21:19.647Z,100436.06
2022-08-26T14:23:49.412Z,100439.81
2022-08-26T14:26:27.779Z,100413.25
2022-08-26T14:28:58.868Z,100435.53
2022-08-26T14:31:29.111Z,100440.69
2022-08-26T14:33:59.476Z,100403.00
2022-08-26T14:36:32.120Z,100437.78
2022-08-26T14:39:05.363Z,100434.38
2022-08-26T14:41:35.410Z,100430.34
2022-08-26T14:44:07.258Z,100426.28
2022-08-26T14:46:41.213Z,100423.94
2022-08-26T14:49:10.698Z,100418.22
2022-08-26T14:51:39.436Z,100407.84
2022-08-26T14:54:16.102Z,100414.03
2022-08-26T14:56:48.545Z,100416.97
2022-08-26T14:59:19.372Z,100415.25
2022-08-26T15:01:48.041Z,100416.75
2022-08-26T15:04:16.594Z,100414.31
2022-08-26T15:06:44.761Z,100414.06
2022-08-26T15:09:14.914Z,100417.19
2022-08-26T15:11:43.017Z,100425.50
2022-08-26T15:14:14.876Z,100429.97
2022-08-26T15:16:48.597Z,100416.59
2022-08-26T15:19:17.428Z,100429.97
2022-08-26T15:21:47.314Z,100436.22
2022-08-26T15:24:21.016Z,100428.81
2022-08-26T15:26:49.565Z,100442.75
2022-08-26T15:29:18.053Z,100429.63
2022-08-26T15:31:46.718Z,100435.19
2022-08-26T15:34:16.948Z,100426.22
2022-08-26T15:36:47.031Z,100429.78
2022-08-26T15:39:17.816Z,100415.47
2022-08-26T15:41:46.727Z,100427.44
2022-08-26T15:44:16.951Z,100423.03
2022-08-26T15:46:45.804Z,100435.53
2022-08-26T15:49:17.618Z,100433.16
2022-08-26T15:51:47.891Z,100432.69
2022-08-26T15:54:19.585Z,100422.34
2022-08-26T15:56:50.525Z,100420.44
2022-08-26T15:59:19.847Z,100422.63
2022-08-26T16:01:48.335Z,100428.16
2022-08-26T16:04:17.555Z,100434.28
2022-08-26T16:06:50.158Z,100430.59
2022-08-26T16:09:20.625Z,100427.19
2022-08-26T16:11:48.767Z,100433.09
2022-08-26T16:14:16.829Z,100444.59
2022-08-26T16:16:44.961Z,100444.44
2022-08-26T16:19:13.071Z,100451.00
2022-08-26T16:21:42.193Z,100458.91
2022-08-26T16:24:11.003Z,100476.25
2022-08-26T16:26:42.444Z,100468.03
2022-08-26T16:29:12.991Z,100484.78
2022-08-26T16:31:41.450Z,100493.59
2022-08-26T16:34:10.253Z,100493.66
2022-08-26T16:36:39.708Z,100504.81
2022-08-26T16:39:09.141Z,100499.41
2022-08-26T16:41:37.953Z,100501.47
2022-08-26T16:44:08.442Z,100504.56
2022-08-26T16:46:37.160Z,100508.66
2022-08-26T16:49:05.318Z,100497.78
2022-08-26T16:51:37.708Z,100470.81
2022-08-26T16:54:08.647Z,100525.50
2022-08-26T16:56:37.923Z,100523.22
2022-08-26T16:59:10.506Z,100519.88
2022-08-26T17:01:38.940Z,100508.38
2022-08-26T17:04:07.052Z,100507.75
2022-08-26T17:06:35.314Z,100509.59
2022-08-26T17:09:03.429Z,100511.81
2022-08-26T17:11:31.726Z,100515.16
2022-08-26T17:13:59.961Z,100511.38
2022-08-26T17:16:29.676Z,100519.84
2022-08-26T17:18:58.381Z,100519.47
2022-08-26T17:21:27.928Z,100512.34
2022-08-26T17:23:56.599Z,100518.31
2022-08-26T17:26:29.438Z,100517.38
2022-08-26T17:28:57.269Z,100508.84
2022-08-26T17:31:26.403Z,100509.13
2022-08-26T17:33:56.686Z,100512.81
2022-08-26T17:36:27.446Z,100519.66
2022-08-26T17:38:56.074Z,100524.94
2022-08-26T17:41:24.093Z,100529.22
2022-08-26T17:43:52.263Z,100529.13
2022-08-26T17:46:26.580Z,100546.09
2022-08-26T17:48:56.320Z,100562.25
2022-08-26T17:51:25.344Z,100545.34
2022-08-26T17:53:53.615Z,100557.34
2022-08-26T17:56:24.944Z,100563.56
2022-08-26T17:58:54.340Z,100548.06
2022-08-26T18:01:26.101Z,100550.22
2022-08-26T18:04:00.272Z,100559.75
2022-08-26T18:06:31.183Z,100540.81
2022-08-26T18:08:59.863Z,100551.56
2022-08-26T18:11:28.486Z,100542.22
2022-08-26T18:13:56.618Z,100562.47
2022-08-26T18:16:25.487Z,100565.16
2022-08-26T18:18:53.987Z,100572.84
2022-08-26T18:21:25.732Z,100571.56
2022-08-26T18:23:55.239Z,100576.97
2022-08-26T18:26:26.156Z,100581.41
2022-08-26T18:28:54.611Z,100583.16
2022-08-26T18:31:22.710Z,100593.97
2022-08-26T18:33:51.138Z,100590.00
2022-08-26T18:36:21.649Z,100591.03
2022-08-26T18:38:52.516Z,100586.72
2022-08-26T18:41:23.063Z,100593.19
2022-08-26T18:43:53.153Z,100592.44
2022-08-26T18:46:24.951Z,100606.41
2022-08-26T18:48:53.419Z,100591.47
2022-08-26T18:51:24.995Z,100619.16
2022-08-26T18:53:54.874Z,100603.91
2022-08-26T18:56:23.238Z,100598.50
2022-08-26T18:58:51.653Z,100598.34
2022-08-26T19:01:23.224Z,100590.50
2022-08-26T19:03:54.306Z,100603.66
2022-08-26T19:06:23.782Z,100596.22
2022-08-26T19:08:51.849Z,100598.22
2022-08-26T19:11:32.525Z,100591.09
2022-08-26T19:14:07.685Z,100595.66
2022-08-26T19:16:37.403Z,100591.66
2022-08-26T19:19:06.452Z,100596.19
2022-08-26T19:21:36.239Z,100594.03
2022-08-26T19:24:07.617Z,100600.69
2022-08-26T19:26:38.892Z,100612.13
2022-08-26T19:29:07.138Z,100609.97
2022-08-26T19:31:35.363Z,100602.25
2022-08-26T19:34:05.283Z,100607.00
2022-08-26T19:36:34.215Z,100603.22
2022-08-26T19:39:05.088Z,100610.47
2022-08-26T19:41:39.558Z,100610.88
2022-08-26T19:44:09.890Z,100614.22
2022-08-26T19:49:11.409Z,100620.16
2022-08-26T19:51:39.459Z,100624.81
2022-08-26T19:54:07.560Z,100623.22
2022-08-26T19:56:36.988Z,100625.81
2022-08-26T19:59:05.108Z,100622.13
2022-08-26T20:01:33.206Z,100634.03
2022-08-26T20:04:01.390Z,100636.91
2022-08-26T20:06:29.538Z,100640.69
2022-08-26T20:08:57.583Z,100636.91
2022-08-26T20:11:26.271Z,100613.09
2022-08-26T20:13:55.871Z,100633.00
2022-08-26T20:16:23.998Z,100637.03
2022-08-26T20:19:09.775Z,100623.50
2022-08-26T20:21:40.118Z,100630.00
2022-08-26T20:24:11.222Z,100642.53
2022-08-26T20:26:40.818Z,100637.53
2022-08-26T20:29:11.865Z,100627.25
2022-08-26T20:31:40.571Z,100632.53
2022-08-26T20:34:09.125Z,100630.03
2022-08-26T20:36:39.789Z,100626.88
2022-08-26T20:39:08.453Z,100621.19
2022-08-26T20:41:36.662Z,100618.75
2022-08-26T20:44:05.234Z,100630.66
2022-08-26T20:46:38.724Z,100630.94
2022-08-26T20:49:08.190Z,100628.59
2022-08-26T20:51:38.486Z,100639.41
2022-08-26T20:54:07.842Z,100623.13
2022-08-26T20:56:36.118Z,100644.97
2022-08-26T20:59:06.862Z,100650.72
2022-08-26T21:01:42.323Z,100662.53
2022-08-26T21:04:13.842Z,100639.94
2022-08-26T21:06:48.988Z,100665.13
2022-08-26T21:09:22.077Z,100659.97
2022-08-26T21:11:57.203Z,100660.97
2022-08-26T21:14:25.802Z,100674.59
2022-08-26T21:16:55.784Z,100670.69
2022-08-26T21:19:23.971Z,100651.66
2022-08-26T21:21:52.154Z,100679.78
2022-08-26T21:24:20.563Z,100664.53
2022-08-26T21:26:49.052Z,100674.34
2022-08-26T21:29:17.158Z,100680.50
2022-08-26T21:31:46.747Z,100680.38
2022-08-26T21:34:18.602Z,100685.41
2022-08-26T21:36:48.595Z,100676.06
2022-08-26T21:39:17.009Z,100678.78
2022-08-26T21:41:46.081Z,100676.66
2022-08-26T21:44:15.459Z,100678.41
2022-08-26T21:46:45.210Z,100679.50
2022-08-26T21:49:16.745Z,100687.81
2022-08-26T21:51:47.121Z,100687.81
2022-08-26T21:54:15.842Z,100694.81
2022-08-26T21:56:47.151Z,100686.84
2022-08-26T21:59:17.391Z,100685.09
2022-08-26T22:01:45.806Z,100688.41
2022-08-26T22:04:13.905Z,100691.97
2022-08-26T22:06:45.101Z,100683.28
2022-08-26T22:09:14.848Z,100694.81
2022-08-26T22:11:43.233Z,100696.66
2022-08-26T22:14:11.750Z,100691.09
2022-08-26T22:16:39.919Z,100693.59
2022-08-26T22:19:10.328Z,100689.03
2022-08-26T22:21:50.798Z,100693.69
2022-08-26T22:24:20.032Z,100685.09
2022-08-26T22:26:48.817Z,100698.00
2022-08-26T22:29:17.218Z,100693.81
2022-08-26T22:31:45.589Z,100698.09
2022-08-26T22:34:17.305Z,100694.06
2022-08-26T22:36:48.589Z,100687.91
2022-08-26T22:39:18.434Z,100686.19
2022-08-26T22:41:50.480Z,100695.69
2022-08-26T22:44:20.501Z,100687.47
2022-08-26T22:46:49.840Z,100681.44
2022-08-26T22:49:18.264Z,100690.66
2022-08-26T22:51:52.036Z,100691.78
2022-08-26T22:54:20.074Z,100686.56
2022-08-26T22:56:48.666Z,100688.09
2022-08-26T22:59:16.873Z,100676.28
2022-08-26T23:01:46.846Z,100698.16
2022-08-26T23:04:14.962Z,100698.25
2022-08-26T23:06:47.473Z,100696.31
2022-08-26T23:09:18.521Z,100686.38
2022-08-26T23:11:47.743Z,100691.78
2022-08-26T23:14:21.454Z,100690.91
2022-08-26T23:16:50.352Z,100688.09
2022-08-26T23:19:20.580Z,100686.38
2022-08-26T23:21:48.921Z,100669.53
2022-08-26T23:24:23.232Z,100672.13
2022-08-26T23:26:51.297Z,100666.81
2022-08-26T23:29:19.353Z,100673.09
2022-08-26T23:31:47.881Z,100675.59
2022-08-26T23:34:33.525Z,100665.25
2022-08-26T23:37:01.719Z,100665.88
2022-08-26T23:39:32.239Z,100662.22
2022-08-26T23:42:01.646Z,100666.50
2022-08-26T23:44:30.681Z,100664.41
2022-08-26T23:46:59.615Z,100663.81
2022-08-26T23:49:32.915Z,100644.03
2022-08-26T23:52:18.620Z,100656.19
2022-08-26T23:54:48.830Z,100656.03
2022-08-26T23:57:19.489Z,100665.78
2022-08-26T23:59:48.522Z,100660.50
